<?xml version="1.0" encoding="utf-8"?>
<gpx xmlns:xsi="http://www.w3.org/2001/XMLSchema-instance" xmlns:xsd="http://www.w3.org/2001/XMLSchema" version="1.1" creator="Shapelink.com" xmlns="http://www.topografix.com/GPX/1/1" xmlns:gpxtpx="http://www.garmin.com/xmlschemas/TrackPointExtension/v1">
  <metadata>
    <name>Ejecutar 7.78 km, 2019-12-17</name>
    <desc></desc>
    <author><name>Per Rooth</name></author> 
    <time>2019-12-17T18:10:15Z</time>
  </metadata>
  <trk>
    <name>Ejecutar 7.78 km, 2019-12-17</name>
    <trkseg>
      <trkpt lat="56.891297331168" lon="14.823941930477">
        <ele>172.4</ele>
        <time>2019-12-17T18:10:15Z</time>
      </trkpt>
      <trkpt lat="56.891326835456" lon="14.823599865138">
        <ele>172.4</ele>
        <time>2019-12-17T18:10:25Z</time>
      </trkpt>
      <trkpt lat="56.891294984236" lon="14.823265930242">
        <ele>172.6</ele>
        <time>2019-12-17T18:10:33Z</time>
      </trkpt>
      <trkpt lat="56.891305042516" lon="14.823096196767">
        <ele>172.8</ele>
        <time>2019-12-17T18:10:37Z</time>
      </trkpt>
      <trkpt lat="56.891345862369" lon="14.823062836805">
        <ele>172.6</ele>
        <time>2019-12-17T18:10:39Z</time>
      </trkpt>
      <trkpt lat="56.891451055214" lon="14.823074236189">
        <ele>172.6</ele>
        <time>2019-12-17T18:10:43Z</time>
      </trkpt>
      <trkpt lat="56.891652304633" lon="14.823028973929">
        <ele>172.2</ele>
        <time>2019-12-17T18:10:51Z</time>
      </trkpt>
      <trkpt lat="56.891833772768" lon="14.822995781605">
        <ele>172.2</ele>
        <time>2019-12-17T18:10:58Z</time>
      </trkpt>
      <trkpt lat="56.89198196476" lon="14.822967450783">
        <ele>171.6</ele>
        <time>2019-12-17T18:11:04Z</time>
      </trkpt>
      <trkpt lat="56.892161672696" lon="14.822919422496">
        <ele>172</ele>
        <time>2019-12-17T18:11:11Z</time>
      </trkpt>
      <trkpt lat="56.892345655401" lon="14.822864940146">
        <ele>171.4</ele>
        <time>2019-12-17T18:11:18Z</time>
      </trkpt>
      <trkpt lat="56.892371890748" lon="14.82285873754">
        <ele>171.4</ele>
        <time>2019-12-17T18:11:19Z</time>
      </trkpt>
      <trkpt lat="56.892572972529" lon="14.822822108637">
        <ele>170.8</ele>
        <time>2019-12-17T18:11:27Z</time>
      </trkpt>
      <trkpt lat="56.892674812614" lon="14.822819174972">
        <ele>170.8</ele>
        <time>2019-12-17T18:11:31Z</time>
      </trkpt>
      <trkpt lat="56.89286960797" lon="14.822844236853">
        <ele>170.2</ele>
        <time>2019-12-17T18:11:39Z</time>
      </trkpt>
      <trkpt lat="56.89306658262" lon="14.822836776962">
        <ele>169.8</ele>
        <time>2019-12-17T18:11:47Z</time>
      </trkpt>
      <trkpt lat="56.893250481506" lon="14.822845494138">
        <ele>169.6</ele>
        <time>2019-12-17T18:11:54Z</time>
      </trkpt>
      <trkpt lat="56.893433458383" lon="14.822839040075">
        <ele>169.8</ele>
        <time>2019-12-17T18:12:01Z</time>
      </trkpt>
      <trkpt lat="56.893634959259" lon="14.822830406718">
        <ele>169.4</ele>
        <time>2019-12-17T18:12:09Z</time>
      </trkpt>
      <trkpt lat="56.893783821803" lon="14.822867622354">
        <ele>169.2</ele>
        <time>2019-12-17T18:12:15Z</time>
      </trkpt>
      <trkpt lat="56.893976773141" lon="14.8229375274">
        <ele>169.6</ele>
        <time>2019-12-17T18:12:22Z</time>
      </trkpt>
      <trkpt lat="56.894155726706" lon="14.823091167627">
        <ele>169.6</ele>
        <time>2019-12-17T18:12:29Z</time>
      </trkpt>
      <trkpt lat="56.894202832984" lon="14.823145733796">
        <ele>169.8</ele>
        <time>2019-12-17T18:12:31Z</time>
      </trkpt>
      <trkpt lat="56.894334261176" lon="14.823391994018">
        <ele>169.8</ele>
        <time>2019-12-17T18:12:38Z</time>
      </trkpt>
      <trkpt lat="56.894438615831" lon="14.823686450165">
        <ele>170</ele>
        <time>2019-12-17T18:12:45Z</time>
      </trkpt>
      <trkpt lat="56.894540707373" lon="14.823972189136">
        <ele>169.8</ele>
        <time>2019-12-17T18:12:52Z</time>
      </trkpt>
      <trkpt lat="56.89456442815" lon="14.824052739195">
        <ele>169.8</ele>
        <time>2019-12-17T18:12:54Z</time>
      </trkpt>
      <trkpt lat="56.894636177214" lon="14.824296317209">
        <ele>170.2</ele>
        <time>2019-12-17T18:13:00Z</time>
      </trkpt>
      <trkpt lat="56.894740028955" lon="14.824580128343">
        <ele>170.2</ele>
        <time>2019-12-17T18:13:07Z</time>
      </trkpt>
      <trkpt lat="56.894845892352" lon="14.824870728816">
        <ele>170</ele>
        <time>2019-12-17T18:13:14Z</time>
      </trkpt>
      <trkpt lat="56.894920910357" lon="14.825107852767">
        <ele>170</ele>
        <time>2019-12-17T18:13:20Z</time>
      </trkpt>
      <trkpt lat="56.895033563093" lon="14.825368865133">
        <ele>170</ele>
        <time>2019-12-17T18:13:27Z</time>
      </trkpt>
      <trkpt lat="56.895151496426" lon="14.825630380413">
        <ele>169.8</ele>
        <time>2019-12-17T18:13:34Z</time>
      </trkpt>
      <trkpt lat="56.895276386736" lon="14.8258879562">
        <ele>169.6</ele>
        <time>2019-12-17T18:13:41Z</time>
      </trkpt>
      <trkpt lat="56.895420303959" lon="14.826107813437">
        <ele>169</ele>
        <time>2019-12-17T18:13:48Z</time>
      </trkpt>
      <trkpt lat="56.895463554563" lon="14.826168582212">
        <ele>169.4</ele>
        <time>2019-12-17T18:13:50Z</time>
      </trkpt>
      <trkpt lat="56.895623229758" lon="14.826361030636">
        <ele>168.8</ele>
        <time>2019-12-17T18:13:57Z</time>
      </trkpt>
      <trkpt lat="56.895793969061" lon="14.826501092185">
        <ele>169</ele>
        <time>2019-12-17T18:14:04Z</time>
      </trkpt>
      <trkpt lat="56.895974515187" lon="14.826560687494">
        <ele>169</ele>
        <time>2019-12-17T18:14:11Z</time>
      </trkpt>
      <trkpt lat="56.896159252263" lon="14.826549958662">
        <ele>169</ele>
        <time>2019-12-17T18:14:18Z</time>
      </trkpt>
      <trkpt lat="56.896338289647" lon="14.826471755535">
        <ele>169.2</ele>
        <time>2019-12-17T18:14:25Z</time>
      </trkpt>
      <trkpt lat="56.896385228287" lon="14.826429762216">
        <ele>169</ele>
        <time>2019-12-17T18:14:27Z</time>
      </trkpt>
      <trkpt lat="56.896551106088" lon="14.826233206661">
        <ele>169</ele>
        <time>2019-12-17T18:14:34Z</time>
      </trkpt>
      <trkpt lat="56.896693682207" lon="14.82598686262">
        <ele>169.4</ele>
        <time>2019-12-17T18:14:41Z</time>
      </trkpt>
      <trkpt lat="56.896855536696" lon="14.82577396236">
        <ele>169.2</ele>
        <time>2019-12-17T18:14:48Z</time>
      </trkpt>
      <trkpt lat="56.897044883817" lon="14.825678911614">
        <ele>169.2</ele>
        <time>2019-12-17T18:14:55Z</time>
      </trkpt>
      <trkpt lat="56.897248815444" lon="14.825764239356">
        <ele>168.8</ele>
        <time>2019-12-17T18:15:02Z</time>
      </trkpt>
      <trkpt lat="56.897415531435" lon="14.825928943691">
        <ele>168.6</ele>
        <time>2019-12-17T18:15:08Z</time>
      </trkpt>
      <trkpt lat="56.897525669601" lon="14.82607403438">
        <ele>168.6</ele>
        <time>2019-12-17T18:15:13Z</time>
      </trkpt>
      <trkpt lat="56.89767998038" lon="14.826272517772">
        <ele>168.6</ele>
        <time>2019-12-17T18:15:20Z</time>
      </trkpt>
      <trkpt lat="56.897851893149" lon="14.826445771645">
        <ele>168.4</ele>
        <time>2019-12-17T18:15:27Z</time>
      </trkpt>
      <trkpt lat="56.898021039891" lon="14.826607290858">
        <ele>168.6</ele>
        <time>2019-12-17T18:15:34Z</time>
      </trkpt>
      <trkpt lat="56.898170992082" lon="14.826810132838">
        <ele>169</ele>
        <time>2019-12-17T18:15:41Z</time>
      </trkpt>
      <trkpt lat="56.898248189381" lon="14.826932005664">
        <ele>168</ele>
        <time>2019-12-17T18:15:45Z</time>
      </trkpt>
      <trkpt lat="56.898410211508" lon="14.827099392207">
        <ele>168</ele>
        <time>2019-12-17T18:15:52Z</time>
      </trkpt>
      <trkpt lat="56.898556391844" lon="14.82732293748">
        <ele>168</ele>
        <time>2019-12-17T18:15:59Z</time>
      </trkpt>
      <trkpt lat="56.898713301012" lon="14.827559893793">
        <ele>167.8</ele>
        <time>2019-12-17T18:16:06Z</time>
      </trkpt>
      <trkpt lat="56.898865935411" lon="14.827821492892">
        <ele>167.8</ele>
        <time>2019-12-17T18:16:13Z</time>
      </trkpt>
      <trkpt lat="56.898989149341" lon="14.828112847736">
        <ele>167.8</ele>
        <time>2019-12-17T18:16:20Z</time>
      </trkpt>
      <trkpt lat="56.899075147635" lon="14.828457679102">
        <ele>167.8</ele>
        <time>2019-12-17T18:16:27Z</time>
      </trkpt>
      <trkpt lat="56.899136670781" lon="14.828801672278">
        <ele>167.6</ele>
        <time>2019-12-17T18:16:32Z</time>
      </trkpt>
      <trkpt lat="56.899310092292" lon="14.828985822621">
        <ele>167.8</ele>
        <time>2019-12-17T18:16:39Z</time>
      </trkpt>
      <trkpt lat="56.899492398617" lon="14.82908565105">
        <ele>167.8</ele>
        <time>2019-12-17T18:16:46Z</time>
      </trkpt>
      <trkpt lat="56.899667496508" lon="14.829172571353">
        <ele>167.8</ele>
        <time>2019-12-17T18:16:53Z</time>
      </trkpt>
      <trkpt lat="56.899850221928" lon="14.829300814423">
        <ele>168.2</ele>
        <time>2019-12-17T18:17:00Z</time>
      </trkpt>
      <trkpt lat="56.900010902951" lon="14.829486808784">
        <ele>168.4</ele>
        <time>2019-12-17T18:17:07Z</time>
      </trkpt>
      <trkpt lat="56.900081310911" lon="14.829640113735">
        <ele>169.2</ele>
        <time>2019-12-17T18:17:11Z</time>
      </trkpt>
      <trkpt lat="56.900207709963" lon="14.829920655928">
        <ele>169.8</ele>
        <time>2019-12-17T18:17:18Z</time>
      </trkpt>
      <trkpt lat="56.90032866078" lon="14.830216956093">
        <ele>169.8</ele>
        <time>2019-12-17T18:17:25Z</time>
      </trkpt>
      <trkpt lat="56.900341317449" lon="14.830260290516">
        <ele>170.2</ele>
        <time>2019-12-17T18:17:26Z</time>
      </trkpt>
      <trkpt lat="56.900419269119" lon="14.830604954244">
        <ele>170.6</ele>
        <time>2019-12-17T18:17:32Z</time>
      </trkpt>
      <trkpt lat="56.900481462817" lon="14.830933273267">
        <ele>171</ele>
        <time>2019-12-17T18:17:38Z</time>
      </trkpt>
      <trkpt lat="56.900562599609" lon="14.831264190679">
        <ele>171</ele>
        <time>2019-12-17T18:17:45Z</time>
      </trkpt>
      <trkpt lat="56.900569137491" lon="14.831312805699">
        <ele>171.2</ele>
        <time>2019-12-17T18:17:46Z</time>
      </trkpt>
      <trkpt lat="56.900657734174" lon="14.831603238534">
        <ele>171</ele>
        <time>2019-12-17T18:17:52Z</time>
      </trkpt>
      <trkpt lat="56.900741553174" lon="14.831936586697">
        <ele>170.8</ele>
        <time>2019-12-17T18:17:58Z</time>
      </trkpt>
      <trkpt lat="56.900799975017" lon="14.832251243223">
        <ele>171</ele>
        <time>2019-12-17T18:18:04Z</time>
      </trkpt>
      <trkpt lat="56.900823025242" lon="14.832356016973">
        <ele>171.2</ele>
        <time>2019-12-17T18:18:06Z</time>
      </trkpt>
      <trkpt lat="56.900892259736" lon="14.83267310425">
        <ele>171.6</ele>
        <time>2019-12-17T18:18:12Z</time>
      </trkpt>
      <trkpt lat="56.900930900295" lon="14.833028580629">
        <ele>172</ele>
        <time>2019-12-17T18:18:19Z</time>
      </trkpt>
      <trkpt lat="56.900978090392" lon="14.833362347887">
        <ele>171.6</ele>
        <time>2019-12-17T18:18:26Z</time>
      </trkpt>
      <trkpt lat="56.901024609937" lon="14.833707346891">
        <ele>172.2</ele>
        <time>2019-12-17T18:18:33Z</time>
      </trkpt>
      <trkpt lat="56.901024107023" lon="14.833759901404">
        <ele>172.2</ele>
        <time>2019-12-17T18:18:34Z</time>
      </trkpt>
      <trkpt lat="56.901016647132" lon="14.834111019195">
        <ele>172.6</ele>
        <time>2019-12-17T18:18:43Z</time>
      </trkpt>
      <trkpt lat="56.900951100674" lon="14.834147899555">
        <ele>175.6</ele>
        <time>2019-12-17T18:21:32Z</time>
      </trkpt>
      <trkpt lat="56.900934085417" lon="14.834161059138">
        <ele>175.6</ele>
        <time>2019-12-17T18:21:33Z</time>
      </trkpt>
      <trkpt lat="56.90085169134" lon="14.834215122393">
        <ele>176.8</ele>
        <time>2019-12-17T18:21:38Z</time>
      </trkpt>
      <trkpt lat="56.900788994728" lon="14.83427572353">
        <ele>177.2</ele>
        <time>2019-12-17T18:21:42Z</time>
      </trkpt>
      <trkpt lat="56.900670223205" lon="14.834410001568">
        <ele>176.2</ele>
        <time>2019-12-17T18:21:49Z</time>
      </trkpt>
      <trkpt lat="56.900595624295" lon="14.834498262975">
        <ele>176.4</ele>
        <time>2019-12-17T18:22:00Z</time>
      </trkpt>
      <trkpt lat="56.900532424769" lon="14.834514691499">
        <ele>176.8</ele>
        <time>2019-12-17T18:22:18Z</time>
      </trkpt>
      <trkpt lat="56.900524126688" lon="14.834536652077">
        <ele>176.8</ele>
        <time>2019-12-17T18:22:20Z</time>
      </trkpt>
      <trkpt lat="56.900516918254" lon="14.834543189959">
        <ele>176.8</ele>
        <time>2019-12-17T18:22:22Z</time>
      </trkpt>
      <trkpt lat="56.900455562746" lon="14.834609909883">
        <ele>176.8</ele>
        <time>2019-12-17T18:22:31Z</time>
      </trkpt>
      <trkpt lat="56.900440894421" lon="14.834626170769">
        <ele>176.8</ele>
        <time>2019-12-17T18:22:32Z</time>
      </trkpt>
      <trkpt lat="56.900250876748" lon="14.8345799865">
        <ele>177.6</ele>
        <time>2019-12-17T18:23:24Z</time>
      </trkpt>
      <trkpt lat="56.900307957487" lon="14.834479319881">
        <ele>177.8</ele>
        <time>2019-12-17T18:23:27Z</time>
      </trkpt>
      <trkpt lat="56.900498142798" lon="14.834370187543">
        <ele>178</ele>
        <time>2019-12-17T18:23:33Z</time>
      </trkpt>
      <trkpt lat="56.900697799656" lon="14.834272203132">
        <ele>177.2</ele>
        <time>2019-12-17T18:23:40Z</time>
      </trkpt>
      <trkpt lat="56.900872226995" lon="14.834134823791">
        <ele>177.8</ele>
        <time>2019-12-17T18:23:48Z</time>
      </trkpt>
      <trkpt lat="56.900908352984" lon="14.834098111069">
        <ele>177.8</ele>
        <time>2019-12-17T18:23:50Z</time>
      </trkpt>
      <trkpt lat="56.901082361228" lon="14.834108588444">
        <ele>177.4</ele>
        <time>2019-12-17T18:24:38Z</time>
      </trkpt>
      <trkpt lat="56.901061825573" lon="14.834185450467">
        <ele>177.6</ele>
        <time>2019-12-17T18:24:43Z</time>
      </trkpt>
      <trkpt lat="56.9010478278" lon="14.834212104909">
        <ele>178.8</ele>
        <time>2019-12-17T18:24:46Z</time>
      </trkpt>
      <trkpt lat="56.901006337395" lon="14.83426566525">
        <ele>177.8</ele>
        <time>2019-12-17T18:24:52Z</time>
      </trkpt>
      <trkpt lat="56.900927715173" lon="14.83432769131">
        <ele>179</ele>
        <time>2019-12-17T18:25:05Z</time>
      </trkpt>
      <trkpt lat="56.900919836187" lon="14.834336157029">
        <ele>179.2</ele>
        <time>2019-12-17T18:25:06Z</time>
      </trkpt>
      <trkpt lat="56.900841968336" lon="14.834377815072">
        <ele>178.2</ele>
        <time>2019-12-17T18:25:14Z</time>
      </trkpt>
      <trkpt lat="56.900827132373" lon="14.834394997967">
        <ele>178.4</ele>
        <time>2019-12-17T18:25:17Z</time>
      </trkpt>
      <trkpt lat="56.900900809274" lon="14.834369433172">
        <ele>178</ele>
        <time>2019-12-17T18:25:21Z</time>
      </trkpt>
      <trkpt lat="56.900993093993" lon="14.83429332552">
        <ele>177.6</ele>
        <time>2019-12-17T18:25:25Z</time>
      </trkpt>
      <trkpt lat="56.901099208847" lon="14.834081934002">
        <ele>178.2</ele>
        <time>2019-12-17T18:25:34Z</time>
      </trkpt>
      <trkpt lat="56.901096861915" lon="14.834087214599">
        <ele>178.2</ele>
        <time>2019-12-17T18:25:36Z</time>
      </trkpt>
      <trkpt lat="56.901066519437" lon="14.834250829287">
        <ele>180.4</ele>
        <time>2019-12-17T18:25:48Z</time>
      </trkpt>
      <trkpt lat="56.900985634102" lon="14.834349819526">
        <ele>179.4</ele>
        <time>2019-12-17T18:25:56Z</time>
      </trkpt>
      <trkpt lat="56.900954034339" lon="14.834351328268">
        <ele>178.8</ele>
        <time>2019-12-17T18:25:59Z</time>
      </trkpt>
      <trkpt lat="56.900939114557" lon="14.834363062928">
        <ele>178.8</ele>
        <time>2019-12-17T18:26:01Z</time>
      </trkpt>
      <trkpt lat="56.900896450686" lon="14.834418634925">
        <ele>178.6</ele>
        <time>2019-12-17T18:26:05Z</time>
      </trkpt>
      <trkpt lat="56.900917740712" lon="14.83433774959">
        <ele>179.2</ele>
        <time>2019-12-17T18:26:20Z</time>
      </trkpt>
      <trkpt lat="56.900984292998" lon="14.834272203132">
        <ele>177.6</ele>
        <time>2019-12-17T18:26:23Z</time>
      </trkpt>
      <trkpt lat="56.901108764213" lon="14.834118562905">
        <ele>176.6</ele>
        <time>2019-12-17T18:26:31Z</time>
      </trkpt>
      <trkpt lat="56.901107423109" lon="14.83408210164">
        <ele>176.8</ele>
        <time>2019-12-17T18:26:32Z</time>
      </trkpt>
      <trkpt lat="56.901099208847" lon="14.834035246819">
        <ele>176.8</ele>
        <time>2019-12-17T18:26:34Z</time>
      </trkpt>
      <trkpt lat="56.9010897373" lon="14.834018985933">
        <ele>176.8</ele>
        <time>2019-12-17T18:26:36Z</time>
      </trkpt>
      <trkpt lat="56.901057550804" lon="14.834120909837">
        <ele>179.2</ele>
        <time>2019-12-17T18:26:58Z</time>
      </trkpt>
      <trkpt lat="56.901020921901" lon="14.834162819337">
        <ele>176.8</ele>
        <time>2019-12-17T18:27:01Z</time>
      </trkpt>
      <trkpt lat="56.901009690155" lon="14.834176900929">
        <ele>180</ele>
        <time>2019-12-17T18:27:02Z</time>
      </trkpt>
      <trkpt lat="56.900998458409" lon="14.834192239806">
        <ele>178.6</ele>
        <time>2019-12-17T18:27:03Z</time>
      </trkpt>
      <trkpt lat="56.900827216192" lon="14.834344538929">
        <ele>178.2</ele>
        <time>2019-12-17T18:27:17Z</time>
      </trkpt>
      <trkpt lat="56.900655303423" lon="14.834423412608">
        <ele>177.4</ele>
        <time>2019-12-17T18:27:30Z</time>
      </trkpt>
      <trkpt lat="56.900634683949" lon="14.834441936607">
        <ele>177.4</ele>
        <time>2019-12-17T18:27:32Z</time>
      </trkpt>
      <trkpt lat="56.900627726972" lon="14.834464735375">
        <ele>176.2</ele>
        <time>2019-12-17T18:27:34Z</time>
      </trkpt>
      <trkpt lat="56.900680952037" lon="14.834441768969">
        <ele>177.8</ele>
        <time>2019-12-17T18:27:38Z</time>
      </trkpt>
      <trkpt lat="56.90085169134" lon="14.83423297584">
        <ele>178.2</ele>
        <time>2019-12-17T18:27:49Z</time>
      </trkpt>
      <trkpt lat="56.900876082669" lon="14.834192994177">
        <ele>179</ele>
        <time>2019-12-17T18:27:51Z</time>
      </trkpt>
      <trkpt lat="56.901038691529" lon="14.83401672282">
        <ele>178.4</ele>
        <time>2019-12-17T18:28:03Z</time>
      </trkpt>
      <trkpt lat="56.901062663763" lon="14.833999372287">
        <ele>178.6</ele>
        <time>2019-12-17T18:28:05Z</time>
      </trkpt>
      <trkpt lat="56.900720011691" lon="14.833437114435">
        <ele>176.8</ele>
        <time>2019-12-17T18:33:40Z</time>
      </trkpt>
      <trkpt lat="56.900739206242" lon="14.833585725522">
        <ele>177.2</ele>
        <time>2019-12-17T18:33:45Z</time>
      </trkpt>
      <trkpt lat="56.900757562603" lon="14.833943716471">
        <ele>177</ele>
        <time>2019-12-17T18:33:53Z</time>
      </trkpt>
      <trkpt lat="56.900739792975" lon="14.834064248193">
        <ele>177.4</ele>
        <time>2019-12-17T18:33:57Z</time>
      </trkpt>
      <trkpt lat="56.900736356396" lon="14.834095093585">
        <ele>177.8</ele>
        <time>2019-12-17T18:33:58Z</time>
      </trkpt>
      <trkpt lat="56.900655135785" lon="14.834337414314">
        <ele>177.4</ele>
        <time>2019-12-17T18:34:04Z</time>
      </trkpt>
      <trkpt lat="56.90063543832" lon="14.834366750964">
        <ele>177.4</ele>
        <time>2019-12-17T18:34:06Z</time>
      </trkpt>
      <trkpt lat="56.900558743935" lon="14.834419808391">
        <ele>177.6</ele>
        <time>2019-12-17T18:34:10Z</time>
      </trkpt>
      <trkpt lat="56.900450533606" lon="14.834491557455">
        <ele>178.8</ele>
        <time>2019-12-17T18:34:14Z</time>
      </trkpt>
      <trkpt lat="56.900387166442" lon="14.834565653451">
        <ele>180</ele>
        <time>2019-12-17T18:34:17Z</time>
      </trkpt>
      <trkpt lat="56.900329415151" lon="14.834604880743">
        <ele>180.2</ele>
        <time>2019-12-17T18:34:20Z</time>
      </trkpt>
      <trkpt lat="56.900134955071" lon="14.834762879558">
        <ele>179</ele>
        <time>2019-12-17T18:34:27Z</time>
      </trkpt>
      <trkpt lat="56.899965892148" lon="14.834885422936">
        <ele>178.8</ele>
        <time>2019-12-17T18:34:32Z</time>
      </trkpt>
      <trkpt lat="56.899866147538" lon="14.834991789247">
        <ele>177.8</ele>
        <time>2019-12-17T18:34:36Z</time>
      </trkpt>
      <trkpt lat="56.899851646851" lon="14.835028082874">
        <ele>177.6</ele>
        <time>2019-12-17T18:34:37Z</time>
      </trkpt>
      <trkpt lat="56.899844354598" lon="14.835048199434">
        <ele>177.6</ele>
        <time>2019-12-17T18:34:38Z</time>
      </trkpt>
      <trkpt lat="56.899831278834" lon="14.835071082021">
        <ele>177.4</ele>
        <time>2019-12-17T18:34:40Z</time>
      </trkpt>
      <trkpt lat="56.899818705984" lon="14.834959016018">
        <ele>177</ele>
        <time>2019-12-17T18:34:59Z</time>
      </trkpt>
      <trkpt lat="56.899874864714" lon="14.834767070508">
        <ele>177.4</ele>
        <time>2019-12-17T18:35:21Z</time>
      </trkpt>
      <trkpt lat="56.900070246803" lon="14.834653160487">
        <ele>178.6</ele>
        <time>2019-12-17T18:35:26Z</time>
      </trkpt>
      <trkpt lat="56.900085166585" lon="14.834649640089">
        <ele>178.4</ele>
        <time>2019-12-17T18:35:27Z</time>
      </trkpt>
      <trkpt lat="56.900226904514" lon="14.834566156365">
        <ele>178.6</ele>
        <time>2019-12-17T18:35:33Z</time>
      </trkpt>
      <trkpt lat="56.900258755734" lon="14.834574873541">
        <ele>177.6</ele>
        <time>2019-12-17T18:35:34Z</time>
      </trkpt>
      <trkpt lat="56.900383813682" lon="14.834537909362">
        <ele>179.2</ele>
        <time>2019-12-17T18:35:40Z</time>
      </trkpt>
      <trkpt lat="56.900413653246" lon="14.834526174702">
        <ele>178</ele>
        <time>2019-12-17T18:35:41Z</time>
      </trkpt>
      <trkpt lat="56.900504596861" lon="14.834496502776">
        <ele>179.2</ele>
        <time>2019-12-17T18:35:45Z</time>
      </trkpt>
      <trkpt lat="56.900547260732" lon="14.83448946198">
        <ele>176.8</ele>
        <time>2019-12-17T18:35:47Z</time>
      </trkpt>
      <trkpt lat="56.90058933787" lon="14.834456018199">
        <ele>179.2</ele>
        <time>2019-12-17T18:35:49Z</time>
      </trkpt>
      <trkpt lat="56.900648430265" lon="14.834430956318">
        <ele>178.2</ele>
        <time>2019-12-17T18:35:52Z</time>
      </trkpt>
      <trkpt lat="56.900805339433" lon="14.834290559493">
        <ele>177.4</ele>
        <time>2019-12-17T18:35:59Z</time>
      </trkpt>
      <trkpt lat="56.900977000745" lon="14.834175727463">
        <ele>178</ele>
        <time>2019-12-17T18:36:07Z</time>
      </trkpt>
      <trkpt lat="56.901001894988" lon="14.834146977546">
        <ele>178</ele>
        <time>2019-12-17T18:36:10Z</time>
      </trkpt>
      <trkpt lat="56.900994602735" lon="14.834118646724">
        <ele>177</ele>
        <time>2019-12-17T18:36:19Z</time>
      </trkpt>
      <trkpt lat="56.900974486175" lon="14.834130381384">
        <ele>175.8</ele>
        <time>2019-12-17T18:36:29Z</time>
      </trkpt>
      <trkpt lat="56.900956548909" lon="14.834140355845">
        <ele>174.8</ele>
        <time>2019-12-17T18:36:33Z</time>
      </trkpt>
      <trkpt lat="56.90093131939" lon="14.834124765511">
        <ele>176.2</ele>
        <time>2019-12-17T18:36:58Z</time>
      </trkpt>
      <trkpt lat="56.900936264711" lon="14.834087382237">
        <ele>177.8</ele>
        <time>2019-12-17T18:36:59Z</time>
      </trkpt>
      <trkpt lat="56.900935426521" lon="14.83404941223">
        <ele>176.6</ele>
        <time>2019-12-17T18:37:00Z</time>
      </trkpt>
      <trkpt lat="56.900858313041" lon="14.83375772211">
        <ele>175.6</ele>
        <time>2019-12-17T18:37:08Z</time>
      </trkpt>
      <trkpt lat="56.900843477078" lon="14.833720255017">
        <ele>175.2</ele>
        <time>2019-12-17T18:37:09Z</time>
      </trkpt>
      <trkpt lat="56.900705091909" lon="14.833490758595">
        <ele>175</ele>
        <time>2019-12-17T18:37:18Z</time>
      </trkpt>
      <trkpt lat="56.900668714463" lon="14.833451866579">
        <ele>175</ele>
        <time>2019-12-17T18:37:21Z</time>
      </trkpt>
      <trkpt lat="56.900694865991" lon="14.833662587545">
        <ele>174.8</ele>
        <time>2019-12-17T18:37:27Z</time>
      </trkpt>
      <trkpt lat="56.900697548199" lon="14.83373173822">
        <ele>174.8</ele>
        <time>2019-12-17T18:37:28Z</time>
      </trkpt>
      <trkpt lat="56.900697967294" lon="14.833954445303">
        <ele>174.8</ele>
        <time>2019-12-17T18:37:33Z</time>
      </trkpt>
      <trkpt lat="56.900701152416" lon="14.834013956793">
        <ele>174.6</ele>
        <time>2019-12-17T18:37:35Z</time>
      </trkpt>
      <trkpt lat="56.900702325882" lon="14.834154521256">
        <ele>174.2</ele>
        <time>2019-12-17T18:37:39Z</time>
      </trkpt>
      <trkpt lat="56.900677180182" lon="14.834303886714">
        <ele>174.2</ele>
        <time>2019-12-17T18:37:43Z</time>
      </trkpt>
      <trkpt lat="56.900648514084" lon="14.834341856721">
        <ele>174.4</ele>
        <time>2019-12-17T18:37:45Z</time>
      </trkpt>
      <trkpt lat="56.900623200746" lon="14.834386699886">
        <ele>174.8</ele>
        <time>2019-12-17T18:37:47Z</time>
      </trkpt>
      <trkpt lat="56.900582799988" lon="14.834406900265">
        <ele>175.4</ele>
        <time>2019-12-17T18:37:49Z</time>
      </trkpt>
      <trkpt lat="56.90039571598" lon="14.834520642648">
        <ele>175.4</ele>
        <time>2019-12-17T18:37:57Z</time>
      </trkpt>
      <trkpt lat="56.900349280254" lon="14.834537322629">
        <ele>175.4</ele>
        <time>2019-12-17T18:37:59Z</time>
      </trkpt>
      <trkpt lat="56.900168231214" lon="14.83467470197">
        <ele>175.8</ele>
        <time>2019-12-17T18:38:06Z</time>
      </trkpt>
      <trkpt lat="56.899991540762" lon="14.834816439899">
        <ele>175.4</ele>
        <time>2019-12-17T18:38:11Z</time>
      </trkpt>
      <trkpt lat="56.899859861113" lon="14.83497645037">
        <ele>174.4</ele>
        <time>2019-12-17T18:38:17Z</time>
      </trkpt>
      <trkpt lat="56.899834212499" lon="14.835042583561">
        <ele>174.4</ele>
        <time>2019-12-17T18:38:19Z</time>
      </trkpt>
      <trkpt lat="56.899809234437" lon="14.835087510545">
        <ele>174.6</ele>
        <time>2019-12-17T18:38:22Z</time>
      </trkpt>
      <trkpt lat="56.899801020175" lon="14.835072506944">
        <ele>174.2</ele>
        <time>2019-12-17T18:38:28Z</time>
      </trkpt>
      <trkpt lat="56.899833625766" lon="14.834948371005">
        <ele>174.2</ele>
        <time>2019-12-17T18:38:58Z</time>
      </trkpt>
      <trkpt lat="56.899997072816" lon="14.834793473493">
        <ele>175.2</ele>
        <time>2019-12-17T18:39:03Z</time>
      </trkpt>
      <trkpt lat="56.900089525173" lon="14.834739577876">
        <ele>175.4</ele>
        <time>2019-12-17T18:39:07Z</time>
      </trkpt>
      <trkpt lat="56.9002683111" lon="14.834666068613">
        <ele>175.8</ele>
        <time>2019-12-17T18:39:14Z</time>
      </trkpt>
      <trkpt lat="56.900441313516" lon="14.834570347315">
        <ele>175.4</ele>
        <time>2019-12-17T18:39:21Z</time>
      </trkpt>
      <trkpt lat="56.900564359808" lon="14.83448610922">
        <ele>176.8</ele>
        <time>2019-12-17T18:39:27Z</time>
      </trkpt>
      <trkpt lat="56.900592271535" lon="14.834460292968">
        <ele>175.4</ele>
        <time>2019-12-17T18:39:28Z</time>
      </trkpt>
      <trkpt lat="56.90076451958" lon="14.834330457337">
        <ele>175.4</ele>
        <time>2019-12-17T18:39:35Z</time>
      </trkpt>
      <trkpt lat="56.900955040167" lon="14.834232305288">
        <ele>176.4</ele>
        <time>2019-12-17T18:39:45Z</time>
      </trkpt>
      <trkpt lat="56.900989657414" lon="14.834195341109">
        <ele>176.2</ele>
        <time>2019-12-17T18:39:50Z</time>
      </trkpt>
      <trkpt lat="56.900973815623" lon="14.834218558972">
        <ele>174.2</ele>
        <time>2019-12-17T18:40:04Z</time>
      </trkpt>
      <trkpt lat="56.901033830027" lon="14.834191233978">
        <ele>175.2</ele>
        <time>2019-12-17T18:40:33Z</time>
      </trkpt>
      <trkpt lat="56.901015557485" lon="14.834062068899">
        <ele>175.6</ele>
        <time>2019-12-17T18:40:37Z</time>
      </trkpt>
      <trkpt lat="56.900885638035" lon="14.833802900551">
        <ele>175.8</ele>
        <time>2019-12-17T18:40:45Z</time>
      </trkpt>
      <trkpt lat="56.900749096884" lon="14.833563681125">
        <ele>174.6</ele>
        <time>2019-12-17T18:40:53Z</time>
      </trkpt>
      <trkpt lat="56.900704756633" lon="14.833491680604">
        <ele>173.8</ele>
        <time>2019-12-17T18:40:56Z</time>
      </trkpt>
      <trkpt lat="56.900672570137" lon="14.833497212658">
        <ele>174</ele>
        <time>2019-12-17T18:40:59Z</time>
      </trkpt>
      <trkpt lat="56.900676258173" lon="14.833606093539">
        <ele>173.6</ele>
        <time>2019-12-17T18:41:02Z</time>
      </trkpt>
      <trkpt lat="56.900681790227" lon="14.833789908606">
        <ele>173.8</ele>
        <time>2019-12-17T18:41:05Z</time>
      </trkpt>
      <trkpt lat="56.900685478263" lon="14.834157119645">
        <ele>173.6</ele>
        <time>2019-12-17T18:41:14Z</time>
      </trkpt>
      <trkpt lat="56.90068656791" lon="14.834254182047">
        <ele>173.8</ele>
        <time>2019-12-17T18:41:16Z</time>
      </trkpt>
      <trkpt lat="56.900657398898" lon="14.834345628576">
        <ele>173.8</ele>
        <time>2019-12-17T18:41:19Z</time>
      </trkpt>
      <trkpt lat="56.900570646233" lon="14.834415617441">
        <ele>175.4</ele>
        <time>2019-12-17T18:41:23Z</time>
      </trkpt>
      <trkpt lat="56.900519181367" lon="14.834434560535">
        <ele>176.8</ele>
        <time>2019-12-17T18:41:26Z</time>
      </trkpt>
      <trkpt lat="56.900457406764" lon="14.834458784226">
        <ele>177</ele>
        <time>2019-12-17T18:41:29Z</time>
      </trkpt>
      <trkpt lat="56.900349196435" lon="14.83454142976">
        <ele>177.4</ele>
        <time>2019-12-17T18:41:34Z</time>
      </trkpt>
      <trkpt lat="56.900234951138" lon="14.834641844922">
        <ele>177.8</ele>
        <time>2019-12-17T18:41:38Z</time>
      </trkpt>
      <trkpt lat="56.900218941709" lon="14.834653328125">
        <ele>177.8</ele>
        <time>2019-12-17T18:41:39Z</time>
      </trkpt>
      <trkpt lat="56.900043089447" lon="14.834775033313">
        <ele>177.4</ele>
        <time>2019-12-17T18:41:44Z</time>
      </trkpt>
      <trkpt lat="56.899949295986" lon="14.834861450702">
        <ele>176.8</ele>
        <time>2019-12-17T18:41:47Z</time>
      </trkpt>
      <trkpt lat="56.899847036806" lon="14.834985754279">
        <ele>176.2</ele>
        <time>2019-12-17T18:41:52Z</time>
      </trkpt>
      <trkpt lat="56.899822729296" lon="14.835014001282">
        <ele>176.2</ele>
        <time>2019-12-17T18:41:54Z</time>
      </trkpt>
      <trkpt lat="56.89980227746" lon="14.835046355416">
        <ele>177</ele>
        <time>2019-12-17T18:41:57Z</time>
      </trkpt>
      <trkpt lat="56.899780316882" lon="14.834965218624">
        <ele>177</ele>
        <time>2019-12-17T18:42:14Z</time>
      </trkpt>
      <trkpt lat="56.899828931902" lon="14.834791629475">
        <ele>177.6</ele>
        <time>2019-12-17T18:42:34Z</time>
      </trkpt>
      <trkpt lat="56.899935717308" lon="14.834713845443">
        <ele>178.8</ele>
        <time>2019-12-17T18:42:37Z</time>
      </trkpt>
      <trkpt lat="56.900124729153" lon="14.834688364467">
        <ele>178</ele>
        <time>2019-12-17T18:42:44Z</time>
      </trkpt>
      <trkpt lat="56.900141492953" lon="14.834684676431">
        <ele>178</ele>
        <time>2019-12-17T18:42:45Z</time>
      </trkpt>
      <trkpt lat="56.900200250072" lon="14.834662464396">
        <ele>177.6</ele>
        <time>2019-12-17T18:42:47Z</time>
      </trkpt>
      <trkpt lat="56.900248110721" lon="14.834657602894">
        <ele>176.6</ele>
        <time>2019-12-17T18:42:49Z</time>
      </trkpt>
      <trkpt lat="56.900430752322" lon="14.834542519407">
        <ele>177</ele>
        <time>2019-12-17T18:42:56Z</time>
      </trkpt>
      <trkpt lat="56.900585817472" lon="14.834425591902">
        <ele>175.4</ele>
        <time>2019-12-17T18:43:03Z</time>
      </trkpt>
      <trkpt lat="56.900621943461" lon="14.8344123485">
        <ele>175.4</ele>
        <time>2019-12-17T18:43:05Z</time>
      </trkpt>
      <trkpt lat="56.900700649502" lon="14.834337665771">
        <ele>175.8</ele>
        <time>2019-12-17T18:43:09Z</time>
      </trkpt>
      <trkpt lat="56.900830904228" lon="14.834235574229">
        <ele>176.4</ele>
        <time>2019-12-17T18:43:15Z</time>
      </trkpt>
      <trkpt lat="56.900963924981" lon="14.834140439664">
        <ele>174.6</ele>
        <time>2019-12-17T18:43:22Z</time>
      </trkpt>
      <trkpt lat="56.900984544455" lon="14.834128369728">
        <ele>175</ele>
        <time>2019-12-17T18:43:24Z</time>
      </trkpt>
      <trkpt lat="56.900995273287" lon="14.834128034452">
        <ele>174.8</ele>
        <time>2019-12-17T18:43:26Z</time>
      </trkpt>
      <trkpt lat="56.901031064" lon="14.834084364753">
        <ele>175.8</ele>
        <time>2019-12-17T18:44:02Z</time>
      </trkpt>
      <trkpt lat="56.90102435848" lon="14.834011442223">
        <ele>176.2</ele>
        <time>2019-12-17T18:44:05Z</time>
      </trkpt>
      <trkpt lat="56.900892930288" lon="14.833742215595">
        <ele>175.6</ele>
        <time>2019-12-17T18:44:14Z</time>
      </trkpt>
      <trkpt lat="56.900753539291" lon="14.833518586503">
        <ele>174.8</ele>
        <time>2019-12-17T18:44:22Z</time>
      </trkpt>
      <trkpt lat="56.900717329483" lon="14.833469552388">
        <ele>174</ele>
        <time>2019-12-17T18:44:24Z</time>
      </trkpt>
      <trkpt lat="56.900677264001" lon="14.833454967882">
        <ele>173</ele>
        <time>2019-12-17T18:44:27Z</time>
      </trkpt>
      <trkpt lat="56.900674665612" lon="14.833629898135">
        <ele>173.6</ele>
        <time>2019-12-17T18:44:31Z</time>
      </trkpt>
      <trkpt lat="56.900696710009" lon="14.833838272169">
        <ele>173.8</ele>
        <time>2019-12-17T18:44:35Z</time>
      </trkpt>
      <trkpt lat="56.900714144361" lon="14.833990906568">
        <ele>174</ele>
        <time>2019-12-17T18:44:38Z</time>
      </trkpt>
      <trkpt lat="56.900720179329" lon="14.834196766032">
        <ele>174.2</ele>
        <time>2019-12-17T18:44:44Z</time>
      </trkpt>
      <trkpt lat="56.900702409701" lon="14.834264659422">
        <ele>174</ele>
        <time>2019-12-17T18:44:46Z</time>
      </trkpt>
      <trkpt lat="56.900550278216" lon="14.834462053167">
        <ele>174.4</ele>
        <time>2019-12-17T18:44:55Z</time>
      </trkpt>
      <trkpt lat="56.900432177245" lon="14.834505219952">
        <ele>175.2</ele>
        <time>2019-12-17T18:45:00Z</time>
      </trkpt>
      <trkpt lat="56.900360763457" lon="14.83455819356">
        <ele>175.4</ele>
        <time>2019-12-17T18:45:03Z</time>
      </trkpt>
      <trkpt lat="56.900189605059" lon="14.834674450513">
        <ele>175.6</ele>
        <time>2019-12-17T18:45:11Z</time>
      </trkpt>
      <trkpt lat="56.899990786391" lon="14.83481300332">
        <ele>174.8</ele>
        <time>2019-12-17T18:45:17Z</time>
      </trkpt>
      <trkpt lat="56.899834296318" lon="14.835018862784">
        <ele>174.2</ele>
        <time>2019-12-17T18:45:27Z</time>
      </trkpt>
      <trkpt lat="56.899825243866" lon="14.835063370673">
        <ele>174.2</ele>
        <time>2019-12-17T18:45:29Z</time>
      </trkpt>
      <trkpt lat="56.89981904126" lon="14.835104861078">
        <ele>174.8</ele>
        <time>2019-12-17T18:45:31Z</time>
      </trkpt>
      <trkpt lat="56.899803618564" lon="14.835163953473">
        <ele>176.6</ele>
        <time>2019-12-17T18:45:35Z</time>
      </trkpt>
      <trkpt lat="56.899794649931" lon="14.835174682305">
        <ele>175</ele>
        <time>2019-12-17T18:45:37Z</time>
      </trkpt>
      <trkpt lat="56.899762547254" lon="14.835214663968">
        <ele>174.6</ele>
        <time>2019-12-17T18:45:43Z</time>
      </trkpt>
      <trkpt lat="56.899757518114" lon="14.835223045868">
        <ele>174.8</ele>
        <time>2019-12-17T18:45:44Z</time>
      </trkpt>
      <trkpt lat="56.899741760142" lon="14.83525808221">
        <ele>175.2</ele>
        <time>2019-12-17T18:46:00Z</time>
      </trkpt>
      <trkpt lat="56.899754752087" lon="14.835201839661">
        <ele>175.4</ele>
        <time>2019-12-17T18:46:02Z</time>
      </trkpt>
      <trkpt lat="56.89976288253" lon="14.835156577401">
        <ele>175.2</ele>
        <time>2019-12-17T18:46:04Z</time>
      </trkpt>
      <trkpt lat="56.899919037327" lon="14.834959351294">
        <ele>175.6</ele>
        <time>2019-12-17T18:46:10Z</time>
      </trkpt>
      <trkpt lat="56.900059015057" lon="14.834802190669">
        <ele>176.2</ele>
        <time>2019-12-17T18:46:15Z</time>
      </trkpt>
      <trkpt lat="56.900188180136" lon="14.834676462169">
        <ele>177.6</ele>
        <time>2019-12-17T18:46:20Z</time>
      </trkpt>
      <trkpt lat="56.900221456279" lon="14.834651987021">
        <ele>175.4</ele>
        <time>2019-12-17T18:46:21Z</time>
      </trkpt>
      <trkpt lat="56.900323715459" lon="14.834587781667">
        <ele>173.8</ele>
        <time>2019-12-17T18:46:25Z</time>
      </trkpt>
      <trkpt lat="56.900519097548" lon="14.834507147789">
        <ele>173.8</ele>
        <time>2019-12-17T18:46:33Z</time>
      </trkpt>
      <trkpt lat="56.900608700059" lon="14.834443193892">
        <ele>175.6</ele>
        <time>2019-12-17T18:46:37Z</time>
      </trkpt>
      <trkpt lat="56.900657734174" lon="14.834412516138">
        <ele>176.8</ele>
        <time>2019-12-17T18:46:39Z</time>
      </trkpt>
      <trkpt lat="56.900731494894" lon="14.834376641606">
        <ele>175.6</ele>
        <time>2019-12-17T18:46:42Z</time>
      </trkpt>
      <trkpt lat="56.900817996102" lon="14.834294918081">
        <ele>177.8</ele>
        <time>2019-12-17T18:46:46Z</time>
      </trkpt>
      <trkpt lat="56.900859821783" lon="14.834270023838">
        <ele>177.8</ele>
        <time>2019-12-17T18:46:48Z</time>
      </trkpt>
      <trkpt lat="56.901010276888" lon="14.834137841275">
        <ele>177.6</ele>
        <time>2019-12-17T18:46:57Z</time>
      </trkpt>
      <trkpt lat="56.901037601882" lon="14.834218307515">
        <ele>178.8</ele>
        <time>2019-12-17T18:47:54Z</time>
      </trkpt>
      <trkpt lat="56.900907682432" lon="14.833971795836">
        <ele>178</ele>
        <time>2019-12-17T18:48:09Z</time>
      </trkpt>
      <trkpt lat="56.900839369947" lon="14.833855874159">
        <ele>177.8</ele>
        <time>2019-12-17T18:48:12Z</time>
      </trkpt>
      <trkpt lat="56.900712719438" lon="14.833597376363">
        <ele>177</ele>
        <time>2019-12-17T18:48:19Z</time>
      </trkpt>
      <trkpt lat="56.90064801117" lon="14.833436024788">
        <ele>177.4</ele>
        <time>2019-12-17T18:48:25Z</time>
      </trkpt>
      <trkpt lat="56.900656476889" lon="14.833474497709">
        <ele>177.4</ele>
        <time>2019-12-17T18:48:30Z</time>
      </trkpt>
      <trkpt lat="56.900657734174" lon="14.833482125238">
        <ele>177.4</ele>
        <time>2019-12-17T18:48:31Z</time>
      </trkpt>
      <trkpt lat="56.900703164072" lon="14.833677088232">
        <ele>177.6</ele>
        <time>2019-12-17T18:48:36Z</time>
      </trkpt>
      <trkpt lat="56.900747923418" lon="14.833861741489">
        <ele>177.2</ele>
        <time>2019-12-17T18:48:40Z</time>
      </trkpt>
      <trkpt lat="56.900720598424" lon="14.834195005833">
        <ele>178</ele>
        <time>2019-12-17T18:48:49Z</time>
      </trkpt>
      <trkpt lat="56.900657566536" lon="14.834325595835">
        <ele>178</ele>
        <time>2019-12-17T18:48:54Z</time>
      </trkpt>
      <trkpt lat="56.900627726972" lon="14.834357530874">
        <ele>178.2</ele>
        <time>2019-12-17T18:48:56Z</time>
      </trkpt>
      <trkpt lat="56.900484228844" lon="14.834435985458">
        <ele>178.6</ele>
        <time>2019-12-17T18:49:03Z</time>
      </trkpt>
      <trkpt lat="56.900450365968" lon="14.834476721492">
        <ele>178.8</ele>
        <time>2019-12-17T18:49:05Z</time>
      </trkpt>
      <trkpt lat="56.900380460922" lon="14.834529778919">
        <ele>181</ele>
        <time>2019-12-17T18:49:08Z</time>
      </trkpt>
      <trkpt lat="56.900226736876" lon="14.834661123292">
        <ele>180.6</ele>
        <time>2019-12-17T18:49:14Z</time>
      </trkpt>
      <trkpt lat="56.900156328916" lon="14.834714013081">
        <ele>180</ele>
        <time>2019-12-17T18:49:18Z</time>
      </trkpt>
      <trkpt lat="56.90032530802" lon="14.834627092778">
        <ele>180</ele>
        <time>2019-12-17T18:49:32Z</time>
      </trkpt>
      <trkpt lat="56.900389513374" lon="14.83455903175">
        <ele>179.6</ele>
        <time>2019-12-17T18:49:38Z</time>
      </trkpt>
      <trkpt lat="56.900441062059" lon="14.834504381762">
        <ele>178.8</ele>
        <time>2019-12-17T18:49:45Z</time>
      </trkpt>
      <trkpt lat="56.90045690385" lon="14.834487701781">
        <ele>178.8</ele>
        <time>2019-12-17T18:49:47Z</time>
      </trkpt>
      <trkpt lat="56.900469644338" lon="14.834491054541">
        <ele>178.6</ele>
        <time>2019-12-17T18:49:49Z</time>
      </trkpt>
      <trkpt lat="56.900508201078" lon="14.834468088135">
        <ele>178.6</ele>
        <time>2019-12-17T18:49:52Z</time>
      </trkpt>
      <trkpt lat="56.900607023679" lon="14.834404469514">
        <ele>178.4</ele>
        <time>2019-12-17T18:50:00Z</time>
      </trkpt>
      <trkpt lat="56.900698889303" lon="14.83431847122">
        <ele>178.8</ele>
        <time>2019-12-17T18:56:04Z</time>
      </trkpt>
      <trkpt lat="56.900673911241" lon="14.834334648287">
        <ele>178.2</ele>
        <time>2019-12-17T18:56:06Z</time>
      </trkpt>
      <trkpt lat="56.900644742229" lon="14.834356273589">
        <ele>178</ele>
        <time>2019-12-17T18:56:09Z</time>
      </trkpt>
      <trkpt lat="56.900633678121" lon="14.834352082639">
        <ele>177.8</ele>
        <time>2019-12-17T18:56:11Z</time>
      </trkpt>
      <trkpt lat="56.900682460779" lon="14.834325260559">
        <ele>181</ele>
        <time>2019-12-17T18:56:18Z</time>
      </trkpt>
      <trkpt lat="56.900693441068" lon="14.834289386027">
        <ele>178.6</ele>
        <time>2019-12-17T18:56:19Z</time>
      </trkpt>
      <trkpt lat="56.900712048886" lon="14.834221576456">
        <ele>179.8</ele>
        <time>2019-12-17T18:56:20Z</time>
      </trkpt>
      <trkpt lat="56.90074272664" lon="14.834060476338">
        <ele>178.4</ele>
        <time>2019-12-17T18:56:22Z</time>
      </trkpt>
      <trkpt lat="56.900754126024" lon="14.833689409625">
        <ele>178.6</ele>
        <time>2019-12-17T18:56:26Z</time>
      </trkpt>
      <trkpt lat="56.900711294515" lon="14.833453962054">
        <ele>178</ele>
        <time>2019-12-17T18:56:29Z</time>
      </trkpt>
      <trkpt lat="56.900700481864" lon="14.833388164139">
        <ele>178.4</ele>
        <time>2019-12-17T18:56:31Z</time>
      </trkpt>
      <trkpt lat="56.900700481864" lon="14.833375842746">
        <ele>178.2</ele>
        <time>2019-12-17T18:56:33Z</time>
      </trkpt>
      <trkpt lat="56.9008131346" lon="14.833646410478">
        <ele>178</ele>
        <time>2019-12-17T18:56:51Z</time>
      </trkpt>
      <trkpt lat="56.900948334647" lon="14.83394044753">
        <ele>178.4</ele>
        <time>2019-12-17T18:56:55Z</time>
      </trkpt>
      <trkpt lat="56.901047157248" lon="14.834155778541">
        <ele>179.2</ele>
        <time>2019-12-17T18:57:01Z</time>
      </trkpt>
      <trkpt lat="56.900918662721" lon="14.83418016987">
        <ele>179</ele>
        <time>2019-12-17T18:57:13Z</time>
      </trkpt>
      <trkpt lat="56.900883207284" lon="14.834193916186">
        <ele>179.6</ele>
        <time>2019-12-17T18:57:14Z</time>
      </trkpt>
      <trkpt lat="56.900711881248" lon="14.834304473447">
        <ele>179.4</ele>
        <time>2019-12-17T18:57:18Z</time>
      </trkpt>
      <trkpt lat="56.900674917069" lon="14.834340180341">
        <ele>178.6</ele>
        <time>2019-12-17T18:57:19Z</time>
      </trkpt>
      <trkpt lat="56.900636695605" lon="14.834371025733">
        <ele>179.8</ele>
        <time>2019-12-17T18:57:21Z</time>
      </trkpt>
      <trkpt lat="56.90073937388" lon="14.834087046961">
        <ele>179.4</ele>
        <time>2019-12-17T18:57:42Z</time>
      </trkpt>
      <trkpt lat="56.900771308919" lon="14.833885629904">
        <ele>179</ele>
        <time>2019-12-17T18:57:44Z</time>
      </trkpt>
      <trkpt lat="56.90077290148" lon="14.833682117372">
        <ele>179.4</ele>
        <time>2019-12-17T18:57:46Z</time>
      </trkpt>
      <trkpt lat="56.900752868739" lon="14.833489668948">
        <ele>179.4</ele>
        <time>2019-12-17T18:57:48Z</time>
      </trkpt>
      <trkpt lat="56.900701739149" lon="14.833306859709">
        <ele>179.4</ele>
        <time>2019-12-17T18:57:51Z</time>
      </trkpt>
      <trkpt lat="56.900719089682" lon="14.833339213843">
        <ele>178.6</ele>
        <time>2019-12-17T18:57:56Z</time>
      </trkpt>
      <trkpt lat="56.900737026948" lon="14.833403083921">
        <ele>178.6</ele>
        <time>2019-12-17T18:58:05Z</time>
      </trkpt>
      <trkpt lat="56.900773488213" lon="14.83347273751">
        <ele>178.8</ele>
        <time>2019-12-17T18:58:07Z</time>
      </trkpt>
      <trkpt lat="56.900926457888" lon="14.833773899177">
        <ele>179.4</ele>
        <time>2019-12-17T18:58:11Z</time>
      </trkpt>
      <trkpt lat="56.901015306028" lon="14.833978920451">
        <ele>179.8</ele>
        <time>2019-12-17T18:58:14Z</time>
      </trkpt>
      <trkpt lat="56.901074901337" lon="14.834137254542">
        <ele>180.2</ele>
        <time>2019-12-17T18:58:18Z</time>
      </trkpt>
      <trkpt lat="56.901075739527" lon="14.834154688894">
        <ele>179.8</ele>
        <time>2019-12-17T18:58:20Z</time>
      </trkpt>
      <trkpt lat="56.900983119532" lon="14.834172123246">
        <ele>179.2</ele>
        <time>2019-12-17T18:58:35Z</time>
      </trkpt>
      <trkpt lat="56.900914136495" lon="14.834221157361">
        <ele>177.8</ele>
        <time>2019-12-17T18:58:37Z</time>
      </trkpt>
      <trkpt lat="56.900868036045" lon="14.834257870083">
        <ele>180.2</ele>
        <time>2019-12-17T18:58:38Z</time>
      </trkpt>
      <trkpt lat="56.900702158244" lon="14.834362643833">
        <ele>178.8</ele>
        <time>2019-12-17T18:58:42Z</time>
      </trkpt>
      <trkpt lat="56.900641473288" lon="14.834383347126">
        <ele>178.6</ele>
        <time>2019-12-17T18:58:45Z</time>
      </trkpt>
      <trkpt lat="56.900677766915" lon="14.834324673826">
        <ele>178.6</ele>
        <time>2019-12-17T18:59:04Z</time>
      </trkpt>
      <trkpt lat="56.900939030738" lon="14.834217385506">
        <ele>178.8</ele>
        <time>2019-12-17T19:01:57Z</time>
      </trkpt>
      <trkpt lat="56.900908436803" lon="14.834237585885">
        <ele>179.2</ele>
        <time>2019-12-17T19:02:00Z</time>
      </trkpt>
      <trkpt lat="56.900890164261" lon="14.834245632509">
        <ele>180.2</ele>
        <time>2019-12-17T19:02:01Z</time>
      </trkpt>
      <trkpt lat="56.900874741565" lon="14.834257367169">
        <ele>179.4</ele>
        <time>2019-12-17T19:02:02Z</time>
      </trkpt>
      <trkpt lat="56.900797963361" lon="14.834293576977">
        <ele>177.8</ele>
        <time>2019-12-17T19:02:06Z</time>
      </trkpt>
      <trkpt lat="56.900768878168" lon="14.834314028813">
        <ele>175.8</ele>
        <time>2019-12-17T19:02:07Z</time>
      </trkpt>
      <trkpt lat="56.900656644527" lon="14.834404134238">
        <ele>176.8</ele>
        <time>2019-12-17T19:02:12Z</time>
      </trkpt>
      <trkpt lat="56.900466375397" lon="14.834525001236">
        <ele>177</ele>
        <time>2019-12-17T19:02:20Z</time>
      </trkpt>
      <trkpt lat="56.900350537539" lon="14.834634804126">
        <ele>178</ele>
        <time>2019-12-17T19:02:25Z</time>
      </trkpt>
      <trkpt lat="56.900171667793" lon="14.834813254777">
        <ele>177.6</ele>
        <time>2019-12-17T19:02:31Z</time>
      </trkpt>
      <trkpt lat="56.899999838843" lon="14.834947616634">
        <ele>177</ele>
        <time>2019-12-17T19:02:37Z</time>
      </trkpt>
      <trkpt lat="56.899866650452" lon="14.835114248806">
        <ele>176</ele>
        <time>2019-12-17T19:02:42Z</time>
      </trkpt>
      <trkpt lat="56.899730109301" lon="14.835340057192">
        <ele>176.8</ele>
        <time>2019-12-17T19:02:49Z</time>
      </trkpt>
      <trkpt lat="56.899713596958" lon="14.835362101589">
        <ele>177</ele>
        <time>2019-12-17T19:02:50Z</time>
      </trkpt>
      <trkpt lat="56.899554676134" lon="14.835513897798">
        <ele>177.4</ele>
        <time>2019-12-17T19:02:58Z</time>
      </trkpt>
      <trkpt lat="56.899380835528" lon="14.835531918883">
        <ele>177.2</ele>
        <time>2019-12-17T19:03:05Z</time>
      </trkpt>
      <trkpt lat="56.899196936642" lon="14.835362101589">
        <ele>177.6</ele>
        <time>2019-12-17T19:03:13Z</time>
      </trkpt>
      <trkpt lat="56.899142454292" lon="14.835321952288">
        <ele>178</ele>
        <time>2019-12-17T19:03:15Z</time>
      </trkpt>
      <trkpt lat="56.899015636145" lon="14.835040823362">
        <ele>178.4</ele>
        <time>2019-12-17T19:03:21Z</time>
      </trkpt>
      <trkpt lat="56.898894433871" lon="14.834920040183">
        <ele>179</ele>
        <time>2019-12-17T19:03:26Z</time>
      </trkpt>
      <trkpt lat="56.89876627462" lon="14.834928589721">
        <ele>180</ele>
        <time>2019-12-17T19:03:32Z</time>
      </trkpt>
      <trkpt lat="56.898557900586" lon="14.834973349067">
        <ele>180.2</ele>
        <time>2019-12-17T19:03:40Z</time>
      </trkpt>
      <trkpt lat="56.898397554839" lon="14.835147860225">
        <ele>180.6</ele>
        <time>2019-12-17T19:03:49Z</time>
      </trkpt>
      <trkpt lat="56.898370313664" lon="14.835192954847">
        <ele>180.8</ele>
        <time>2019-12-17T19:03:51Z</time>
      </trkpt>
      <trkpt lat="56.898352711674" lon="14.835232014501">
        <ele>181.2</ele>
        <time>2019-12-17T19:03:52Z</time>
      </trkpt>
      <trkpt lat="56.898255900729" lon="14.835350702205">
        <ele>182.4</ele>
        <time>2019-12-17T19:03:57Z</time>
      </trkpt>
      <trkpt lat="56.898082060123" lon="14.8354852317">
        <ele>183.2</ele>
        <time>2019-12-17T19:04:04Z</time>
      </trkpt>
      <trkpt lat="56.897904447662" lon="14.835613810046">
        <ele>183.8</ele>
        <time>2019-12-17T19:04:11Z</time>
      </trkpt>
      <trkpt lat="56.897776958963" lon="14.835656809193">
        <ele>185</ele>
        <time>2019-12-17T19:04:15Z</time>
      </trkpt>
      <trkpt lat="56.897593311534" lon="14.83565035513">
        <ele>185.4</ele>
        <time>2019-12-17T19:04:21Z</time>
      </trkpt>
      <trkpt lat="56.89740756863" lon="14.835646247999">
        <ele>185</ele>
        <time>2019-12-17T19:04:27Z</time>
      </trkpt>
      <trkpt lat="56.897209169057" lon="14.835527895571">
        <ele>184.8</ele>
        <time>2019-12-17T19:04:34Z</time>
      </trkpt>
      <trkpt lat="56.897027198008" lon="14.835445250037">
        <ele>184.2</ele>
        <time>2019-12-17T19:04:40Z</time>
      </trkpt>
      <trkpt lat="56.896965507224" lon="14.835395461551">
        <ele>183.8</ele>
        <time>2019-12-17T19:04:43Z</time>
      </trkpt>
      <trkpt lat="56.896779261406" lon="14.835344834875">
        <ele>183.4</ele>
        <time>2019-12-17T19:04:50Z</time>
      </trkpt>
      <trkpt lat="56.896633751622" lon="14.835303009194">
        <ele>183.4</ele>
        <time>2019-12-17T19:04:56Z</time>
      </trkpt>
      <trkpt lat="56.896449601279" lon="14.835228158827">
        <ele>183</ele>
        <time>2019-12-17T19:05:04Z</time>
      </trkpt>
      <trkpt lat="56.896427808339" lon="14.835218100547">
        <ele>182.8</ele>
        <time>2019-12-17T19:05:05Z</time>
      </trkpt>
      <trkpt lat="56.896233851173" lon="14.835221285669">
        <ele>183.2</ele>
        <time>2019-12-17T19:05:13Z</time>
      </trkpt>
      <trkpt lat="56.896118683867" lon="14.835246515188">
        <ele>184</ele>
        <time>2019-12-17T19:05:18Z</time>
      </trkpt>
      <trkpt lat="56.895971078608" lon="14.835323544849">
        <ele>185.2</ele>
        <time>2019-12-17T19:05:24Z</time>
      </trkpt>
      <trkpt lat="56.89588793016" lon="14.835395210094">
        <ele>186</ele>
        <time>2019-12-17T19:05:28Z</time>
      </trkpt>
      <trkpt lat="56.895709563328" lon="14.835461846199">
        <ele>185</ele>
        <time>2019-12-17T19:05:35Z</time>
      </trkpt>
      <trkpt lat="56.895586349398" lon="14.835477101257">
        <ele>184</ele>
        <time>2019-12-17T19:05:38Z</time>
      </trkpt>
      <trkpt lat="56.895395744992" lon="14.83550870102">
        <ele>183.4</ele>
        <time>2019-12-17T19:05:44Z</time>
      </trkpt>
      <trkpt lat="56.89529365345" lon="14.835555052927">
        <ele>183</ele>
        <time>2019-12-17T19:05:48Z</time>
      </trkpt>
      <trkpt lat="56.895099025732" lon="14.835630406208">
        <ele>183</ele>
        <time>2019-12-17T19:05:56Z</time>
      </trkpt>
      <trkpt lat="56.894919736891" lon="14.83579033286">
        <ele>182.6</ele>
        <time>2019-12-17T19:06:03Z</time>
      </trkpt>
      <trkpt lat="56.894725025354" lon="14.835909858754">
        <ele>183.4</ele>
        <time>2019-12-17T19:06:11Z</time>
      </trkpt>
      <trkpt lat="56.89453173874" lon="14.836021338024">
        <ele>183.4</ele>
        <time>2019-12-17T19:06:18Z</time>
      </trkpt>
      <trkpt lat="56.894324538172" lon="14.836085459559">
        <ele>183</ele>
        <time>2019-12-17T19:06:24Z</time>
      </trkpt>
      <trkpt lat="56.894145249331" lon="14.836209176403">
        <ele>182.8</ele>
        <time>2019-12-17T19:06:32Z</time>
      </trkpt>
      <trkpt lat="56.893995045683" lon="14.836384106656">
        <ele>182.8</ele>
        <time>2019-12-17T19:06:38Z</time>
      </trkpt>
      <trkpt lat="56.893824474018" lon="14.836588625016">
        <ele>183.2</ele>
        <time>2019-12-17T19:06:45Z</time>
      </trkpt>
      <trkpt lat="56.893663625357" lon="14.836754754274">
        <ele>183.2</ele>
        <time>2019-12-17T19:06:52Z</time>
      </trkpt>
      <trkpt lat="56.893502106144" lon="14.836986849085">
        <ele>183.4</ele>
        <time>2019-12-17T19:06:59Z</time>
      </trkpt>
      <trkpt lat="56.893371851418" lon="14.837238808999">
        <ele>183.6</ele>
        <time>2019-12-17T19:07:05Z</time>
      </trkpt>
      <trkpt lat="56.893218881743" lon="14.83746252191">
        <ele>183.8</ele>
        <time>2019-12-17T19:07:12Z</time>
      </trkpt>
      <trkpt lat="56.893102876247" lon="14.83764524733">
        <ele>184.2</ele>
        <time>2019-12-17T19:07:17Z</time>
      </trkpt>
      <trkpt lat="56.892963149974" lon="14.837905840601">
        <ele>183.8</ele>
        <time>2019-12-17T19:07:24Z</time>
      </trkpt>
      <trkpt lat="56.892815544715" lon="14.83816576332">
        <ele>183.2</ele>
        <time>2019-12-17T19:07:30Z</time>
      </trkpt>
      <trkpt lat="56.892744214746" lon="14.838284367205">
        <ele>183</ele>
        <time>2019-12-17T19:07:33Z</time>
      </trkpt>
      <trkpt lat="56.892596777125" lon="14.838476145077">
        <ele>182.4</ele>
        <time>2019-12-17T19:07:39Z</time>
      </trkpt>
      <trkpt lat="56.89241698537" lon="14.838634646806">
        <ele>183</ele>
        <time>2019-12-17T19:07:45Z</time>
      </trkpt>
      <trkpt lat="56.89233987189" lon="14.838746377533">
        <ele>184.2</ele>
        <time>2019-12-17T19:07:49Z</time>
      </trkpt>
      <trkpt lat="56.892262590772" lon="14.838878308639">
        <ele>185.2</ele>
        <time>2019-12-17T19:07:54Z</time>
      </trkpt>
      <trkpt lat="56.892140131213" lon="14.838936730482">
        <ele>184</ele>
        <time>2019-12-17T19:07:59Z</time>
      </trkpt>
      <trkpt lat="56.891947682789" lon="14.839000181465">
        <ele>183.6</ele>
        <time>2019-12-17T19:08:06Z</time>
      </trkpt>
      <trkpt lat="56.891754982908" lon="14.839013341048">
        <ele>183.4</ele>
        <time>2019-12-17T19:08:13Z</time>
      </trkpt>
      <trkpt lat="56.89157376623" lon="14.839032032685">
        <ele>183.2</ele>
        <time>2019-12-17T19:08:19Z</time>
      </trkpt>
      <trkpt lat="56.891556918611" lon="14.839048712666">
        <ele>183.2</ele>
        <time>2019-12-17T19:08:20Z</time>
      </trkpt>
      <trkpt lat="56.891505118469" lon="14.839105877224">
        <ele>183.4</ele>
        <time>2019-12-17T19:08:23Z</time>
      </trkpt>
      <trkpt lat="56.891331445501" lon="14.839294972888">
        <ele>185.2</ele>
        <time>2019-12-17T19:08:29Z</time>
      </trkpt>
      <trkpt lat="56.8912661505" lon="14.83935683131">
        <ele>186.2</ele>
        <time>2019-12-17T19:08:32Z</time>
      </trkpt>
      <trkpt lat="56.891175123066" lon="14.839451714418">
        <ele>187.2</ele>
        <time>2019-12-17T19:08:35Z</time>
      </trkpt>
      <trkpt lat="56.890993654931" lon="14.839587668836">
        <ele>188.4</ele>
        <time>2019-12-17T19:08:42Z</time>
      </trkpt>
      <trkpt lat="56.890829788786" lon="14.839751032067">
        <ele>188.4</ele>
        <time>2019-12-17T19:08:49Z</time>
      </trkpt>
      <trkpt lat="56.890630131928" lon="14.83986980359">
        <ele>188.4</ele>
        <time>2019-12-17T19:08:57Z</time>
      </trkpt>
      <trkpt lat="56.890445730128" lon="14.839924034483">
        <ele>187.8</ele>
        <time>2019-12-17T19:09:04Z</time>
      </trkpt>
      <trkpt lat="56.890251689143" lon="14.840006512379">
        <ele>187.6</ele>
        <time>2019-12-17T19:09:11Z</time>
      </trkpt>
      <trkpt lat="56.890135683647" lon="14.840076082149">
        <ele>187.2</ele>
        <time>2019-12-17T19:09:15Z</time>
      </trkpt>
      <trkpt lat="56.890020181065" lon="14.840115728536">
        <ele>186</ele>
        <time>2019-12-17T19:09:19Z</time>
      </trkpt>
      <trkpt lat="56.889823122596" lon="14.840254616619">
        <ele>185.2</ele>
        <time>2019-12-17T19:09:27Z</time>
      </trkpt>
      <trkpt lat="56.889717259199" lon="14.840335334316">
        <ele>185</ele>
        <time>2019-12-17T19:09:32Z</time>
      </trkpt>
      <trkpt lat="56.889534533779" lon="14.840487801077">
        <ele>184.4</ele>
        <time>2019-12-17T19:09:38Z</time>
      </trkpt>
      <trkpt lat="56.889350383436" lon="14.840624258409">
        <ele>183.8</ele>
        <time>2019-12-17T19:09:44Z</time>
      </trkpt>
      <trkpt lat="56.889168663844" lon="14.840747137063">
        <ele>182.8</ele>
        <time>2019-12-17T19:09:51Z</time>
      </trkpt>
      <trkpt lat="56.888989458822" lon="14.84083707485">
        <ele>183</ele>
        <time>2019-12-17T19:09:56Z</time>
      </trkpt>
      <trkpt lat="56.888897341741" lon="14.84089574815">
        <ele>184</ele>
        <time>2019-12-17T19:10:00Z</time>
      </trkpt>
      <trkpt lat="56.888834812767" lon="14.840932377053">
        <ele>185</ele>
        <time>2019-12-17T19:10:03Z</time>
      </trkpt>
      <trkpt lat="56.888752083414" lon="14.840978645141">
        <ele>186.2</ele>
        <time>2019-12-17T19:10:06Z</time>
      </trkpt>
      <trkpt lat="56.888734146148" lon="14.840987446136">
        <ele>186.8</ele>
        <time>2019-12-17T19:10:07Z</time>
      </trkpt>
      <trkpt lat="56.888720316013" lon="14.840990882715">
        <ele>187.4</ele>
        <time>2019-12-17T19:10:08Z</time>
      </trkpt>
      <trkpt lat="56.888665330749" lon="14.841032708396">
        <ele>188.6</ele>
        <time>2019-12-17T19:10:11Z</time>
      </trkpt>
      <trkpt lat="56.888483694976" lon="14.841097081388">
        <ele>189.4</ele>
        <time>2019-12-17T19:10:17Z</time>
      </trkpt>
      <trkpt lat="56.888300801918" lon="14.841147540426">
        <ele>188.6</ele>
        <time>2019-12-17T19:10:23Z</time>
      </trkpt>
      <trkpt lat="56.888103072897" lon="14.841051148576">
        <ele>187.8</ele>
        <time>2019-12-17T19:10:30Z</time>
      </trkpt>
      <trkpt lat="56.888075831722" lon="14.841009239076">
        <ele>187.6</ele>
        <time>2019-12-17T19:10:31Z</time>
      </trkpt>
      <trkpt lat="56.88797541656" lon="14.840724422114">
        <ele>187</ele>
        <time>2019-12-17T19:10:36Z</time>
      </trkpt>
      <trkpt lat="56.887926969178" lon="14.840360480016">
        <ele>186.8</ele>
        <time>2019-12-17T19:10:43Z</time>
      </trkpt>
      <trkpt lat="56.887923029685" lon="14.840263501433">
        <ele>186.4</ele>
        <time>2019-12-17T19:10:45Z</time>
      </trkpt>
      <trkpt lat="56.887897716347" lon="14.840115560898">
        <ele>185.2</ele>
        <time>2019-12-17T19:10:48Z</time>
      </trkpt>
      <trkpt lat="56.887809790216" lon="14.83980442477">
        <ele>185</ele>
        <time>2019-12-17T19:10:54Z</time>
      </trkpt>
      <trkpt lat="56.887716583488" lon="14.839513321383">
        <ele>186</ele>
        <time>2019-12-17T19:11:01Z</time>
      </trkpt>
      <trkpt lat="56.887578449776" lon="14.839262283478">
        <ele>186.2</ele>
        <time>2019-12-17T19:11:08Z</time>
      </trkpt>
      <trkpt lat="56.887476106777" lon="14.838970677177">
        <ele>186</ele>
        <time>2019-12-17T19:11:14Z</time>
      </trkpt>
      <trkpt lat="56.88736940519" lon="14.838700025626">
        <ele>185.6</ele>
        <time>2019-12-17T19:11:20Z</time>
      </trkpt>
      <trkpt lat="56.887235965342" lon="14.838453346309">
        <ele>186</ele>
        <time>2019-12-17T19:11:26Z</time>
      </trkpt>
      <trkpt lat="56.88715650493" lon="14.838307249792">
        <ele>186.4</ele>
        <time>2019-12-17T19:11:30Z</time>
      </trkpt>
      <trkpt lat="56.887007055653" lon="14.838039364268">
        <ele>186.6</ele>
        <time>2019-12-17T19:11:37Z</time>
      </trkpt>
      <trkpt lat="56.886883757904" lon="14.837769970002">
        <ele>186</ele>
        <time>2019-12-17T19:11:43Z</time>
      </trkpt>
      <trkpt lat="56.886845452621" lon="14.837658826008">
        <ele>185.4</ele>
        <time>2019-12-17T19:11:45Z</time>
      </trkpt>
      <trkpt lat="56.886787030778" lon="14.837448188861">
        <ele>184.2</ele>
        <time>2019-12-17T19:11:49Z</time>
      </trkpt>
      <trkpt lat="56.886747887305" lon="14.837235875334">
        <ele>183</ele>
        <time>2019-12-17T19:11:53Z</time>
      </trkpt>
      <trkpt lat="56.886695081335" lon="14.836917614591">
        <ele>182.4</ele>
        <time>2019-12-17T19:11:59Z</time>
      </trkpt>
      <trkpt lat="56.886650992541" lon="14.836721645769">
        <ele>182</ele>
        <time>2019-12-17T19:12:03Z</time>
      </trkpt>
      <trkpt lat="56.886599024761" lon="14.836433559866">
        <ele>183.2</ele>
        <time>2019-12-17T19:12:09Z</time>
      </trkpt>
      <trkpt lat="56.886590894318" lon="14.836319146931">
        <ele>184.6</ele>
        <time>2019-12-17T19:12:12Z</time>
      </trkpt>
      <trkpt lat="56.886576812726" lon="14.836167266903">
        <ele>185.6</ele>
        <time>2019-12-17T19:12:16Z</time>
      </trkpt>
      <trkpt lat="56.886487042577" lon="14.8358372715">
        <ele>185.2</ele>
        <time>2019-12-17T19:12:23Z</time>
      </trkpt>
      <trkpt lat="56.886435493892" lon="14.835711543">
        <ele>184.4</ele>
        <time>2019-12-17T19:12:26Z</time>
      </trkpt>
      <trkpt lat="56.886284032959" lon="14.83552295025">
        <ele>184.4</ele>
        <time>2019-12-17T19:12:33Z</time>
      </trkpt>
      <trkpt lat="56.886101139901" lon="14.835471233927">
        <ele>183.8</ele>
        <time>2019-12-17T19:12:39Z</time>
      </trkpt>
      <trkpt lat="56.88592101287" lon="14.835480454017">
        <ele>183.4</ele>
        <time>2019-12-17T19:12:45Z</time>
      </trkpt>
      <trkpt lat="56.885807605763" lon="14.835480873112">
        <ele>182.4</ele>
        <time>2019-12-17T19:12:49Z</time>
      </trkpt>
      <trkpt lat="56.885722529478" lon="14.835490931392">
        <ele>181</ele>
        <time>2019-12-17T19:12:52Z</time>
      </trkpt>
      <trkpt lat="56.885544078827" lon="14.83556150699">
        <ele>180.6</ele>
        <time>2019-12-17T19:13:00Z</time>
      </trkpt>
      <trkpt lat="56.885367220737" lon="14.835671058423">
        <ele>181.2</ele>
        <time>2019-12-17T19:13:07Z</time>
      </trkpt>
      <trkpt lat="56.885313492758" lon="14.835693521915">
        <ele>181.4</ele>
        <time>2019-12-17T19:13:10Z</time>
      </trkpt>
      <trkpt lat="56.885134874469" lon="14.835728893533">
        <ele>181.8</ele>
        <time>2019-12-17T19:13:16Z</time>
      </trkpt>
      <trkpt lat="56.885068238364" lon="14.835740795831">
        <ele>182.2</ele>
        <time>2019-12-17T19:13:18Z</time>
      </trkpt>
      <trkpt lat="56.884888446609" lon="14.835757224355">
        <ele>182.8</ele>
        <time>2019-12-17T19:13:24Z</time>
      </trkpt>
      <trkpt lat="56.884714522184" lon="14.835557902773">
        <ele>180.6</ele>
        <time>2019-12-17T19:13:31Z</time>
      </trkpt>
      <trkpt lat="56.884681748955" lon="14.835436365223">
        <ele>179</ele>
        <time>2019-12-17T19:13:33Z</time>
      </trkpt>
      <trkpt lat="56.884614107022" lon="14.835246179912">
        <ele>177.8</ele>
        <time>2019-12-17T19:13:37Z</time>
      </trkpt>
      <trkpt lat="56.884569766771" lon="14.835105363992">
        <ele>177.6</ele>
        <time>2019-12-17T19:13:40Z</time>
      </trkpt>
      <trkpt lat="56.884526935262" lon="14.834916687423">
        <ele>176.6</ele>
        <time>2019-12-17T19:13:44Z</time>
      </trkpt>
      <trkpt lat="56.884433896172" lon="14.834681491309">
        <ele>175.6</ele>
        <time>2019-12-17T19:13:49Z</time>
      </trkpt>
      <trkpt lat="56.884273298968" lon="14.834456102018">
        <ele>175.6</ele>
        <time>2019-12-17T19:13:55Z</time>
      </trkpt>
      <trkpt lat="56.884085292951" lon="14.834344958024">
        <ele>174.8</ele>
        <time>2019-12-17T19:14:02Z</time>
      </trkpt>
      <trkpt lat="56.883888234482" lon="14.834268347458">
        <ele>175.8</ele>
        <time>2019-12-17T19:14:10Z</time>
      </trkpt>
      <trkpt lat="56.883691008375" lon="14.834161478233">
        <ele>176</ele>
        <time>2019-12-17T19:14:17Z</time>
      </trkpt>
      <trkpt lat="56.883514401742" lon="14.834001803038">
        <ele>176.4</ele>
        <time>2019-12-17T19:14:23Z</time>
      </trkpt>
      <trkpt lat="56.883353469262" lon="14.833788651321">
        <ele>176.2</ele>
        <time>2019-12-17T19:14:29Z</time>
      </trkpt>
      <trkpt lat="56.883209803496" lon="14.833564184039">
        <ele>174.2</ele>
        <time>2019-12-17T19:14:35Z</time>
      </trkpt>
      <trkpt lat="56.88322874659" lon="14.833219185035">
        <ele>173</ele>
        <time>2019-12-17T19:14:41Z</time>
      </trkpt>
      <trkpt lat="56.883373585822" lon="14.83299413102">
        <ele>172.2</ele>
        <time>2019-12-17T19:14:47Z</time>
      </trkpt>
      <trkpt lat="56.883533680112" lon="14.832782990959">
        <ele>172.2</ele>
        <time>2019-12-17T19:14:53Z</time>
      </trkpt>
      <trkpt lat="56.883680363362" lon="14.832545615551">
        <ele>172.2</ele>
        <time>2019-12-17T19:14:59Z</time>
      </trkpt>
      <trkpt lat="56.883820257273" lon="14.832334224033">
        <ele>173</ele>
        <time>2019-12-17T19:15:06Z</time>
      </trkpt>
      <trkpt lat="56.883935424579" lon="14.832083437585">
        <ele>172.6</ele>
        <time>2019-12-17T19:15:12Z</time>
      </trkpt>
      <trkpt lat="56.884084873856" lon="14.831847403281">
        <ele>172.6</ele>
        <time>2019-12-17T19:15:20Z</time>
      </trkpt>
      <trkpt lat="56.884231808563" lon="14.831641711455">
        <ele>172.4</ele>
        <time>2019-12-17T19:15:27Z</time>
      </trkpt>
      <trkpt lat="56.884370529008" lon="14.831573315151">
        <ele>172.6</ele>
        <time>2019-12-17T19:15:35Z</time>
      </trkpt>
      <trkpt lat="56.884480750993" lon="14.831874225361">
        <ele>172.6</ele>
        <time>2019-12-17T19:15:43Z</time>
      </trkpt>
      <trkpt lat="56.884605473665" lon="14.832145128369">
        <ele>172.2</ele>
        <time>2019-12-17T19:15:50Z</time>
      </trkpt>
      <trkpt lat="56.884750648173" lon="14.832376804085">
        <ele>172.6</ele>
        <time>2019-12-17T19:15:57Z</time>
      </trkpt>
      <trkpt lat="56.884868749144" lon="14.832535054357">
        <ele>174</ele>
        <time>2019-12-17T19:16:03Z</time>
      </trkpt>
      <trkpt lat="56.884895319767" lon="14.832596158408">
        <ele>175.2</ele>
        <time>2019-12-17T19:16:05Z</time>
      </trkpt>
      <trkpt lat="56.884961033863" lon="14.832633206406">
        <ele>176.2</ele>
        <time>2019-12-17T19:16:08Z</time>
      </trkpt>
      <trkpt lat="56.885021215905" lon="14.832650640758">
        <ele>177.4</ele>
        <time>2019-12-17T19:16:11Z</time>
      </trkpt>
      <trkpt lat="56.885070417658" lon="14.832668829481">
        <ele>178.4</ele>
        <time>2019-12-17T19:16:13Z</time>
      </trkpt>
      <trkpt lat="56.885259010408" lon="14.832668326567">
        <ele>179</ele>
        <time>2019-12-17T19:16:19Z</time>
      </trkpt>
      <trkpt lat="56.885437712516" lon="14.8326353857">
        <ele>178.4</ele>
        <time>2019-12-17T19:16:25Z</time>
      </trkpt>
      <trkpt lat="56.885617923366" lon="14.832650724577">
        <ele>178.4</ele>
        <time>2019-12-17T19:16:33Z</time>
      </trkpt>
      <trkpt lat="56.885748597187" lon="14.832761030381">
        <ele>177.2</ele>
        <time>2019-12-17T19:16:37Z</time>
      </trkpt>
      <trkpt lat="56.885852784204" lon="14.832857422231">
        <ele>176</ele>
        <time>2019-12-17T19:16:41Z</time>
      </trkpt>
      <trkpt lat="56.886033414149" lon="14.83299916016">
        <ele>175.6</ele>
        <time>2019-12-17T19:16:49Z</time>
      </trkpt>
      <trkpt lat="56.886161238124" lon="14.833036375796">
        <ele>177.4</ele>
        <time>2019-12-17T19:16:53Z</time>
      </trkpt>
      <trkpt lat="56.886257629974" lon="14.833055235071">
        <ele>178.6</ele>
        <time>2019-12-17T19:16:57Z</time>
      </trkpt>
      <trkpt lat="56.886310687401" lon="14.833060683306">
        <ele>179.8</ele>
        <time>2019-12-17T19:17:00Z</time>
      </trkpt>
      <trkpt lat="56.886501543264" lon="14.83309219925">
        <ele>181</ele>
        <time>2019-12-17T19:17:06Z</time>
      </trkpt>
      <trkpt lat="56.886691644756" lon="14.833126732678">
        <ele>180.4</ele>
        <time>2019-12-17T19:17:12Z</time>
      </trkpt>
      <trkpt lat="56.886872777615" lon="14.833047272266">
        <ele>180.2</ele>
        <time>2019-12-17T19:17:19Z</time>
      </trkpt>
      <trkpt lat="56.887019460865" lon="14.832803442795">
        <ele>180.4</ele>
        <time>2019-12-17T19:17:26Z</time>
      </trkpt>
      <trkpt lat="56.88710286077" lon="14.832507058811">
        <ele>181.8</ele>
        <time>2019-12-17T19:17:35Z</time>
      </trkpt>
      <trkpt lat="56.887113002869" lon="14.832179745616">
        <ele>179.4</ele>
        <time>2019-12-17T19:17:41Z</time>
      </trkpt>
      <trkpt lat="56.887135633999" lon="14.832056531686">
        <ele>178</ele>
        <time>2019-12-17T19:17:43Z</time>
      </trkpt>
      <trkpt lat="56.887161869346" lon="14.831956116524">
        <ele>176.8</ele>
        <time>2019-12-17T19:17:45Z</time>
      </trkpt>
      <trkpt lat="56.887215094411" lon="14.831793926759">
        <ele>175.6</ele>
        <time>2019-12-17T19:17:48Z</time>
      </trkpt>
      <trkpt lat="56.887287178751" lon="14.831684542964">
        <ele>174.2</ele>
        <time>2019-12-17T19:17:51Z</time>
      </trkpt>
      <trkpt lat="56.887360017462" lon="14.831591168598">
        <ele>173</ele>
        <time>2019-12-17T19:17:54Z</time>
      </trkpt>
      <trkpt lat="56.887549364583" lon="14.831463344623">
        <ele>172.6</ele>
        <time>2019-12-17T19:18:02Z</time>
      </trkpt>
      <trkpt lat="56.88771390128" lon="14.831324121264">
        <ele>172.4</ele>
        <time>2019-12-17T19:18:09Z</time>
      </trkpt>
      <trkpt lat="56.887881790737" lon="14.831180958412">
        <ele>172.4</ele>
        <time>2019-12-17T19:18:15Z</time>
      </trkpt>
      <trkpt lat="56.888058565008" lon="14.831083728372">
        <ele>172</ele>
        <time>2019-12-17T19:18:20Z</time>
      </trkpt>
      <trkpt lat="56.888219246031" lon="14.830927238299">
        <ele>172.4</ele>
        <time>2019-12-17T19:18:28Z</time>
      </trkpt>
      <trkpt lat="56.888245732835" lon="14.830776615556">
        <ele>172.4</ele>
        <time>2019-12-17T19:18:31Z</time>
      </trkpt>
      <trkpt lat="56.888269956526" lon="14.830647450477">
        <ele>172.4</ele>
        <time>2019-12-17T19:18:34Z</time>
      </trkpt>
      <trkpt lat="56.888296527149" lon="14.830302535292">
        <ele>171.8</ele>
        <time>2019-12-17T19:18:40Z</time>
      </trkpt>
      <trkpt lat="56.888420830726" lon="14.830031464646">
        <ele>171.6</ele>
        <time>2019-12-17T19:18:46Z</time>
      </trkpt>
      <trkpt lat="56.888498530939" lon="14.829982179074">
        <ele>171.4</ele>
        <time>2019-12-17T19:18:49Z</time>
      </trkpt>
      <trkpt lat="56.888698690711" lon="14.829962230152">
        <ele>171.4</ele>
        <time>2019-12-17T19:18:56Z</time>
      </trkpt>
      <trkpt lat="56.888889630393" lon="14.829941610678">
        <ele>171.4</ele>
        <time>2019-12-17T19:19:03Z</time>
      </trkpt>
      <trkpt lat="56.889085431577" lon="14.829819989309">
        <ele>171.8</ele>
        <time>2019-12-17T19:19:10Z</time>
      </trkpt>
      <trkpt lat="56.889270336291" lon="14.829658218639">
        <ele>172.2</ele>
        <time>2019-12-17T19:19:17Z</time>
      </trkpt>
      <trkpt lat="56.889461695068" lon="14.829596444036">
        <ele>172.2</ele>
        <time>2019-12-17T19:19:23Z</time>
      </trkpt>
      <trkpt lat="56.889639056072" lon="14.829520001108">
        <ele>172.4</ele>
        <time>2019-12-17T19:19:29Z</time>
      </trkpt>
      <trkpt lat="56.889782218924" lon="14.829411036408">
        <ele>172.4</ele>
        <time>2019-12-17T19:19:34Z</time>
      </trkpt>
      <trkpt lat="56.889798395991" lon="14.82931866787">
        <ele>172.2</ele>
        <time>2019-12-17T19:19:36Z</time>
      </trkpt>
      <trkpt lat="56.889791439014" lon="14.828986828449">
        <ele>172.4</ele>
        <time>2019-12-17T19:19:43Z</time>
      </trkpt>
      <trkpt lat="56.889916077867" lon="14.828725480807">
        <ele>171.6</ele>
        <time>2019-12-17T19:19:51Z</time>
      </trkpt>
      <trkpt lat="56.890051697009" lon="14.828497744584">
        <ele>172</ele>
        <time>2019-12-17T19:19:58Z</time>
      </trkpt>
      <trkpt lat="56.890167367229" lon="14.82834888204">
        <ele>172.4</ele>
        <time>2019-12-17T19:20:03Z</time>
      </trkpt>
      <trkpt lat="56.890209025272" lon="14.828139753635">
        <ele>172.2</ele>
        <time>2019-12-17T19:20:09Z</time>
      </trkpt>
      <trkpt lat="56.89025445517" lon="14.827800454323">
        <ele>171.8</ele>
        <time>2019-12-17T19:20:17Z</time>
      </trkpt>
      <trkpt lat="56.89022930947" lon="14.827428297963">
        <ele>171.8</ele>
        <time>2019-12-17T19:20:24Z</time>
      </trkpt>
      <trkpt lat="56.890200475734" lon="14.827074330326">
        <ele>172.2</ele>
        <time>2019-12-17T19:20:29Z</time>
      </trkpt>
      <trkpt lat="56.890201397743" lon="14.8267345281">
        <ele>172</ele>
        <time>2019-12-17T19:20:35Z</time>
      </trkpt>
      <trkpt lat="56.890265770735" lon="14.826367987613">
        <ele>172.2</ele>
        <time>2019-12-17T19:20:42Z</time>
      </trkpt>
      <trkpt lat="56.890351014658" lon="14.826058192589">
        <ele>172.2</ele>
        <time>2019-12-17T19:20:48Z</time>
      </trkpt>
      <trkpt lat="56.890424356283" lon="14.825741775864">
        <ele>172.2</ele>
        <time>2019-12-17T19:20:54Z</time>
      </trkpt>
      <trkpt lat="56.89047657552" lon="14.825620322133">
        <ele>173</ele>
        <time>2019-12-17T19:20:57Z</time>
      </trkpt>
      <trkpt lat="56.890605405323" lon="14.825353274799">
        <ele>173.2</ele>
        <time>2019-12-17T19:21:03Z</time>
      </trkpt>
      <trkpt lat="56.890729122167" lon="14.825080695411">
        <ele>173.2</ele>
        <time>2019-12-17T19:21:09Z</time>
      </trkpt>
      <trkpt lat="56.890831381347" lon="14.824774336966">
        <ele>174</ele>
        <time>2019-12-17T19:21:17Z</time>
      </trkpt>
      <trkpt lat="56.890890892837" lon="14.824659002022">
        <ele>175.2</ele>
        <time>2019-12-17T19:21:21Z</time>
      </trkpt>
      <trkpt lat="56.890967251946" lon="14.82453176478">
        <ele>176.4</ele>
        <time>2019-12-17T19:21:25Z</time>
      </trkpt>
      <trkpt lat="56.891090549695" lon="14.824299167055">
        <ele>177.2</ele>
        <time>2019-12-17T19:21:32Z</time>
      </trkpt>
      <trkpt lat="56.891216948747" lon="14.824162039171">
        <ele>177</ele>
        <time>2019-12-17T19:21:39Z</time>
      </trkpt>
    </trkseg>
  </trk>
</gpx>